Terminal Aerodrome Forecast
Issued by NWS

Home | Current Version | Previous Version | Graphics & Text | Print | Product List | Glossary On
Versions: 1 2 3 4 5 6 7 8 9 10 11 12 13 14 15 16 17 18 19 20 21 22 23
000
FTUS43 KFGF 220540
TAFBJI
TAF
KBJI 220540Z 2206/2306 VRB03KT P6SM OVC050
     FM221000 VRB03KT 5SM BR BKN003
     FM221700 35005KT 4SM -RA OVC008
     FM221900 36006KT 4SM -RA OVC008
     FM222200 35010KT P6SM OVC008
     FM230100 35010KT P6SM OVC010
     FM230300 34009KT P6SM BKN008
     FM230400 34009KT P6SM BKN010=

USA.gov is the U.S. government's official web portal to all federal, state and local government web resources and services.